Map

Track Data

SID SEASON NUMBER BASIN SUBBASIN NAME ISO_TIME NATURE LAT LON WMO_WIND WMO_PRES WMO_AGENCY TRACK_TYPE DIST2LAND LANDFALL IFLAG USA_AGENCY USA_ATCF_ID USA_LAT USA_LON USA_RECORD USA_STATUS USA_WIND USA_PRES USA_SSHS USA_R34_NE USA_R34_SE USA_R34_SW USA_R34_NW USA_R50_NE USA_R50_SE USA_R50_SW USA_R50_NW USA_R64_NE USA_R64_SE USA_R64_SW USA_R64_NW USA_POCI USA_ROCI USA_RMW USA_EYE TOKYO_LAT TOKYO_LON TOKYO_GRADE TOKYO_WIND TOKYO_PRES TOKYO_R50_DIR TOKYO_R50_LONG TOKYO_R50_SHORT TOKYO_R30_DIR TOKYO_R30_LONG TOKYO_R30_SHORT TOKYO_LAND CMA_LAT CMA_LON CMA_CAT CMA_WIND CMA_PRES HKO_LAT HKO_LON HKO_CAT HKO_WIND HKO_PRES NEWDELHI_LAT NEWDELHI_LON NEWDELHI_GRADE NEWDELHI_WIND NEWDELHI_PRES NEWDELHI_CI NEWDELHI_DP NEWDELHI_POCI REUNION_LAT REUNION_LON REUNION_TYPE REUNION_WIND REUNION_PRES REUNION_TNUM REUNION_CI REUNION_RMW REUNION_R34_NE REUNION_R34_SE REUNION_R34_SW REUNION_R34_NW REUNION_R50_NE REUNION_R50_SE REUNION_R50_SW REUNION_R50_NW REUNION_R64_NE REUNION_R64_SE REUNION_R64_SW REUNION_R64_NW BOM_LAT BOM_LON BOM_TYPE BOM_WIND BOM_PRES BOM_TNUM BOM_CI BOM_RMW BOM_R34_NE BOM_R34_SE BOM_R34_SW BOM_R34_NW BOM_R50_NE BOM_R50_SE BOM_R50_SW BOM_R50_NW BOM_R64_NE BOM_R64_SE BOM_R64_SW BOM_R64_NW BOM_ROCI BOM_POCI BOM_EYE BOM_POS_METHOD BOM_PRES_METHOD NADI_LAT NADI_LON NADI_CAT NADI_WIND NADI_PRES WELLINGTON_LAT WELLINGTON_LON WELLINGTON_WIND WELLINGTON_PRES DS824_LAT DS824_LON DS824_STAGE DS824_WIND DS824_PRES TD9636_LAT TD9636_LON TD9636_STAGE TD9636_WIND TD9636_PRES TD9635_LAT TD9635_LON TD9635_WIND TD9635_PRES TD9635_ROCI NEUMANN_LAT NEUMANN_LON NEUMANN_CLASS NEUMANN_WIND NEUMANN_PRES MLC_LAT MLC_LON MLC_CLASS MLC_WIND MLC_PRES USA_GUST BOM_GUST BOM_GUST_PER REUNION_GUST REUNION_GUST_PER USA_SEAHGT USA_SEARAD_NE USA_SEARAD_SE USA_SEARAD_SW USA_SEARAD_NW STORM_SPEED STORM_DIR
1967300N26289 1967 129 NA NA NOT_NAMED 1967-10-26 12:00:00 TS 25.9000 -70.9000 hurdat_atl main 567 567 O_____________ hurdat_atl AL261967 25.9000 -70.9000 TD -1 9 74
1967300N26289 1967 129 NA NA NOT_NAMED 1967-10-26 15:00:00 TS 26.0202 -70.4202 main 598 598 P_____________ AL261967 26.0202 -70.4202 TD -1 9 77
1967300N26289 1967 129 NA NA NOT_NAMED 1967-10-26 18:00:00 TS 26.1000 -69.9000 hurdat_atl main 631 631 O_____________ hurdat_atl AL261967 26.1000 -69.9000 TD -1 10 85
1967300N26289 1967 129 NA NA NOT_NAMED 1967-10-26 21:00:00 TS 26.1024 -69.3152 main 664 664 P_____________ AL261967 26.1024 -69.3152 TD -1 11 95
1967300N26289 1967 129 NA NA NOT_NAMED 1967-10-27 00:00:00 TS 26.0000 -68.7000 hurdat_atl main 692 692 O_____________ hurdat_atl AL261967 26.0000 -68.7000 TD -1 11 108
1967300N26289 1967 129 NA NA NOT_NAMED 1967-10-27 03:00:00 TS 25.7496 -68.1144 main 707 704 P_____________ AL261967 25.7496 -68.1144 TD -1 12 115
1967300N26289 1967 129 NA NA NOT_NAMED 1967-10-27 06:00:00 TS 25.5000 -67.5000 hurdat_atl main 707 705 O_____________ hurdat_atl AL261967 25.5000 -67.5000 TD -1 12 107
1967300N26289 1967 129 NA NA NOT_NAMED 1967-10-27 09:00:00 TS 25.3902 -66.7925 main 726 726 P_____________ AL261967 25.3902 -66.7925 TD -1 13 95
1967300N26289 1967 129 NA NA NOT_NAMED 1967-10-27 12:00:00 TS 25.4000 -66.1000 hurdat_atl main 757 757 O_____________ hurdat_atl AL261967 25.4000 -66.1000 TD -1 12 85
1967300N26289 1967 129 NA NA NOT_NAMED 1967-10-27 15:00:00 TS 25.4975 -65.4604 main 793 793 P_____________ AL261967 25.4975 -65.4604 TD -1 10 73
1967300N26289 1967 129 NA NA NOT_NAMED 1967-10-27 18:00:00 TS 25.7000 -65.0000 hurdat_atl main 818 818 O_____________ hurdat_atl AL261967 25.7000 -65.0000 TD -1 7 43
1967300N26289 1967 129 NA NA NOT_NAMED 1967-10-27 21:00:00 TS 25.9835 -64.9662 main 851 851 P_____________ AL261967 25.9835 -64.9662 TD -1 6 17
1967300N26289 1967 129 NA NA NOT_NAMED 1967-10-28 00:00:00 TS 26.3000 -64.8000 hurdat_atl main 886 886 O_____________ hurdat_atl AL261967 26.3000 -64.8000 TD -1 11 57
1967300N26289 1967 129 NA NA NOT_NAMED 1967-10-28 03:00:00 TS 26.5893 -63.9062 main 933 933 P_____________ AL261967 26.5893 -63.9062 TD -1 19 74
1967300N26289 1967 129 NA NA NOT_NAMED 1967-10-28 06:00:00 TS 26.8000 -62.8000 hurdat_atl main 981 981 O_____________ hurdat_atl AL261967 26.8000 -62.8000 TD -1 20 77
1967300N26289 1967 129 NA NA NOT_NAMED 1967-10-28 09:00:00 TS 27.0300 -61.7281 main 1040 1040 P_____________ AL261967 27.0300 -61.7281 TD -1 14 86
1967300N26289 1967 129 NA NA NOT_NAMED 1967-10-28 12:00:00 TS 26.9000 -61.2000 hurdat_atl main 1051 929 O_____________ hurdat_atl AL261967 26.9000 -61.2000 TD -1 12 0
1967300N26289 1967 129 NA NA NOT_NAMED 1967-10-28 15:00:00 TS 25.8676 -61.7385 main 929 796 P_____________ AL261967 25.8676 -61.7385 TD -1 24 217
1967300N26289 1967 129 NA NA NOT_NAMED 1967-10-28 18:00:00 TS 25.0000 -62.8000 hurdat_atl main 792 772 O_____________ hurdat_atl AL261967 25.0000 -62.8000 TD -1 20 252
1967300N26289 1967 129 NA NA NOT_NAMED 1967-10-28 21:00:00 TS 25.2638 -63.8412 main 793 788 P_____________ AL261967 25.2638 -63.8412 TD -1 22 304
1967300N26289 1967 129 NA NA NOT_NAMED 1967-10-29 00:00:00 TS 26.2000 -64.8000 hurdat_atl main 875 875 O_____________ hurdat_atl AL261967 26.2000 -64.8000 TD -1 26 327
1967300N26289 1967 129 NA NA NOT_NAMED 1967-10-29 03:00:00 TS 27.4242 -65.4194 main 988 988 P_____________ AL261967 27.4242 -65.4194 TD -1 28 341
1967300N26289 1967 129 NA NA NOT_NAMED 1967-10-29 06:00:00 TS 28.8000 -65.8000 hurdat_atl main 1112 1102 O_____________ hurdat_atl AL261967 28.8000 -65.8000 TD -1 26 348
1967300N26289 1967 129 NA NA NOT_NAMED 1967-10-29 09:00:00 TS 29.9751 -66.0352 main 1095 1019 P_____________ AL261967 29.9751 -66.0352 TD -1 22 351
1967300N26289 1967 129 NA NA NOT_NAMED 1967-10-29 12:00:00 TS 31.0000 -66.2000 hurdat_atl main 1013 O_____________ hurdat_atl AL261967 31.0000 -66.2000 TD -1 21 352

About IBTrACS Database

This database is a web-friendly format of International Best Track Archive for Climate Stewardship (IBTrACS), a global best track data archive curated by NOAA dating back to 1842.

Updated: 2021-11-26